sensor_id;sensor_type;location;lat;lon;timestamp;temperature;humidity
75738;DHT22;64356;45.638;13.764;2023-02-13T00:01:21;19.10;39.20
75738;DHT22;64356;45.638;13.764;2023-02-13T00:03:46;19.10;39.30
75738;DHT22;64356;45.638;13.764;2023-02-13T00:06:12;19.00;39.40
75738;DHT22;64356;45.638;13.764;2023-02-13T00:08:38;19.00;39.50
75738;DHT22;64356;45.638;13.764;2023-02-13T00:11:04;19.00;39.60
75738;DHT22;64356;45.638;13.764;2023-02-13T00:13:29;18.90;39.60
75738;DHT22;64356;45.638;13.764;2023-02-13T00:16:00;18.90;39.70
75738;DHT22;64356;45.638;13.764;2023-02-13T00:18:27;18.90;39.70
75738;DHT22;64356;45.638;13.764;2023-02-13T00:21:04;18.80;39.80
75738;DHT22;64356;45.638;13.764;2023-02-13T00:23:31;18.80;39.90
75738;DHT22;64356;45.638;13.764;2023-02-13T00:25:58;18.80;39.90
75738;DHT22;64356;45.638;13.764;2023-02-13T00:28:24;18.70;40.00
75738;DHT22;64356;45.638;13.764;2023-02-13T00:30:50;18.70;40.00
75738;DHT22;64356;45.638;13.764;2023-02-13T00:33:15;18.70;40.10
75738;DHT22;64356;45.638;13.764;2023-02-13T00:35:41;18.70;40.10
75738;DHT22;64356;45.638;13.764;2023-02-13T00:38:07;18.60;40.10
75738;DHT22;64356;45.638;13.764;2023-02-13T00:40:33;18.60;40.20
75738;DHT22;64356;45.638;13.764;2023-02-13T00:42:58;18.60;40.30
75738;DHT22;64356;45.638;13.764;2023-02-13T00:45:24;18.50;40.30
75738;DHT22;64356;45.638;13.764;2023-02-13T00:47:50;18.50;40.30
75738;DHT22;64356;45.638;13.764;2023-02-13T00:50:15;18.50;40.40
75738;DHT22;64356;45.638;13.764;2023-02-13T00:52:41;18.50;40.40
75738;DHT22;64356;45.638;13.764;2023-02-13T00:55:07;18.50;40.40
75738;DHT22;64356;45.638;13.764;2023-02-13T00:57:33;18.50;40.50
75738;DHT22;64356;45.638;13.764;2023-02-13T00:59:58;18.40;40.50
75738;DHT22;64356;45.638;13.764;2023-02-13T01:02:24;18.40;40.50
75738;DHT22;64356;45.638;13.764;2023-02-13T01:04:50;18.40;40.60
75738;DHT22;64356;45.638;13.764;2023-02-13T01:07:16;18.40;40.60
75738;DHT22;64356;45.638;13.764;2023-02-13T01:09:41;18.40;40.70
75738;DHT22;64356;45.638;13.764;2023-02-13T01:12:07;18.40;40.60
75738;DHT22;64356;45.638;13.764;2023-02-13T01:14:33;18.60;40.20
75738;DHT22;64356;45.638;13.764;2023-02-13T01:16:58;18.80;39.90
75738;DHT22;64356;45.638;13.764;2023-02-13T01:19:24;19.00;39.60
75738;DHT22;64356;45.638;13.764;2023-02-13T01:21:50;19.10;39.30
75738;DHT22;64356;45.638;13.764;2023-02-13T01:24:15;19.20;39.20
75738;DHT22;64356;45.638;13.764;2023-02-13T01:26:41;19.30;39.00
75738;DHT22;64356;45.638;13.764;2023-02-13T01:29:08;19.30;38.80
75738;DHT22;64356;45.638;13.764;2023-02-13T01:31:34;19.40;38.70
75738;DHT22;64356;45.638;13.764;2023-02-13T01:33:59;19.40;38.70
75738;DHT22;64356;45.638;13.764;2023-02-13T01:36:26;19.50;38.60
75738;DHT22;64356;45.638;13.764;2023-02-13T01:38:56;19.50;38.60
75738;DHT22;64356;45.638;13.764;2023-02-13T01:41:23;19.50;38.60
75738;DHT22;64356;45.638;13.764;2023-02-13T01:46:28;19.50;38.40
75738;DHT22;64356;45.638;13.764;2023-02-13T01:49:00;19.50;38.40
75738;DHT22;64356;45.638;13.764;2023-02-13T01:51:31;19.60;38.40
75738;DHT22;64356;45.638;13.764;2023-02-13T01:56:42;19.60;38.40
75738;DHT22;64356;45.638;13.764;2023-02-13T01:59:15;19.60;38.30
75738;DHT22;64356;45.638;13.764;2023-02-13T02:01:42;19.60;38.40
75738;DHT22;64356;45.638;13.764;2023-02-13T02:04:21;19.70;38.40
75738;DHT22;64356;45.638;13.764;2023-02-13T02:06:53;19.60;38.30
75738;DHT22;64356;45.638;13.764;2023-02-13T02:09:22;19.60;38.30
75738;DHT22;64356;45.638;13.764;2023-02-13T02:12:07;19.60;38.30
75738;DHT22;64356;45.638;13.764;2023-02-13T02:14:34;19.60;38.20
75738;DHT22;64356;45.638;13.764;2023-02-13T02:17:00;19.60;38.20
75738;DHT22;64356;45.638;13.764;2023-02-13T02:19:34;19.60;38.30
75738;DHT22;64356;45.638;13.764;2023-02-13T02:27:39;19.70;38.30
75738;DHT22;64356;45.638;13.764;2023-02-13T02:30:41;19.60;38.20
75738;DHT22;64356;45.638;13.764;2023-02-13T02:35:48;19.60;38.20
75738;DHT22;64356;45.638;13.764;2023-02-13T02:49:50;19.60;38.20
75738;DHT22;64356;45.638;13.764;2023-02-13T02:52:38;19.70;38.20
75738;DHT22;64356;45.638;13.764;2023-02-13T02:55:46;19.70;38.20
75738;DHT22;64356;45.638;13.764;2023-02-13T02:58:20;19.70;38.20
75738;DHT22;64356;45.638;13.764;2023-02-13T03:01:10;19.70;38.20
75738;DHT22;64356;45.638;13.764;2023-02-13T03:03:56;19.70;38.20
75738;DHT22;64356;45.638;13.764;2023-02-13T03:06:55;19.70;38.20
75738;DHT22;64356;45.638;13.764;2023-02-13T03:09:23;19.70;38.80
75738;DHT22;64356;45.638;13.764;2023-02-13T03:12:11;19.70;38.10
75738;DHT22;64356;45.638;13.764;2023-02-13T03:14:57;20.00;37.90
75738;DHT22;64356;45.638;13.764;2023-02-13T03:17:23;20.30;37.40
75738;DHT22;64356;45.638;13.764;2023-02-13T03:23:14;20.70;36.60
75738;DHT22;64356;45.638;13.764;2023-02-13T03:31:59;20.70;36.40
75738;DHT22;64356;45.638;13.764;2023-02-13T03:34:37;20.80;36.40
75738;DHT22;64356;45.638;13.764;2023-02-13T03:37:29;20.80;36.40
75738;DHT22;64356;45.638;13.764;2023-02-13T03:40:27;20.80;36.40
75738;DHT22;64356;45.638;13.764;2023-02-13T03:45:30;20.80;36.30
75738;DHT22;64356;45.638;13.764;2023-02-13T03:48:19;20.80;36.30
75738;DHT22;64356;45.638;13.764;2023-02-13T03:51:05;20.80;36.20
75738;DHT22;64356;45.638;13.764;2023-02-13T03:53:34;20.80;36.20
75738;DHT22;64356;45.638;13.764;2023-02-13T03:56:02;20.80;36.20
75738;DHT22;64356;45.638;13.764;2023-02-13T03:58:51;20.90;36.20
75738;DHT22;64356;45.638;13.764;2023-02-13T04:01:37;20.90;36.20
75738;DHT22;64356;45.638;13.764;2023-02-13T04:05:14;20.90;36.10
75738;DHT22;64356;45.638;13.764;2023-02-13T04:07:16;20.90;36.10
75738;DHT22;64356;45.638;13.764;2023-02-13T04:10:11;20.90;36.10
75738;DHT22;64356;45.638;13.764;2023-02-13T04:17:39;20.90;36.10
75738;DHT22;64356;45.638;13.764;2023-02-13T04:20:07;20.90;36.10
75738;DHT22;64356;45.638;13.764;2023-02-13T04:22:32;20.90;36.10
75738;DHT22;64356;45.638;13.764;2023-02-13T04:24:58;21.00;36.10
75738;DHT22;64356;45.638;13.764;2023-02-13T04:27:27;21.00;36.10
75738;DHT22;64356;45.638;13.764;2023-02-13T04:29:53;21.00;36.00
75738;DHT22;64356;45.638;13.764;2023-02-13T04:32:18;21.00;36.00
75738;DHT22;64356;45.638;13.764;2023-02-13T04:34:44;21.00;36.00
75738;DHT22;64356;45.638;13.764;2023-02-13T04:37:10;21.00;35.90
75738;DHT22;64356;45.638;13.764;2023-02-13T04:39:35;21.10;35.90
75738;DHT22;64356;45.638;13.764;2023-02-13T04:42:01;21.10;35.90
75738;DHT22;64356;45.638;13.764;2023-02-13T04:44:27;21.10;35.80
75738;DHT22;64356;45.638;13.764;2023-02-13T04:46:53;21.20;35.80
75738;DHT22;64356;45.638;13.764;2023-02-13T04:49:18;21.10;35.70
75738;DHT22;64356;45.638;13.764;2023-02-13T04:51:44;21.10;35.70
75738;DHT22;64356;45.638;13.764;2023-02-13T04:54:10;21.20;35.70
75738;DHT22;64356;45.638;13.764;2023-02-13T04:56:36;21.20;35.70
75738;DHT22;64356;45.638;13.764;2023-02-13T04:59:01;21.20;35.70
75738;DHT22;64356;45.638;13.764;2023-02-13T05:01:27;21.20;35.70
75738;DHT22;64356;45.638;13.764;2023-02-13T05:03:53;21.20;35.70
75738;DHT22;64356;45.638;13.764;2023-02-13T05:06:18;21.20;35.60
75738;DHT22;64356;45.638;13.764;2023-02-13T05:08:44;21.20;35.60
75738;DHT22;64356;45.638;13.764;2023-02-13T05:11:10;21.20;35.60
75738;DHT22;64356;45.638;13.764;2023-02-13T05:13:35;21.30;35.60
75738;DHT22;64356;45.638;13.764;2023-02-13T05:16:01;21.30;35.60
75738;DHT22;64356;45.638;13.764;2023-02-13T05:18:27;21.30;35.60
75738;DHT22;64356;45.638;13.764;2023-02-13T05:20:53;21.30;35.50
75738;DHT22;64356;45.638;13.764;2023-02-13T05:23:37;21.30;35.40
75738;DHT22;64356;45.638;13.764;2023-02-13T05:26:03;21.40;35.40
75738;DHT22;64356;45.638;13.764;2023-02-13T05:28:29;21.40;35.30
75738;DHT22;64356;45.638;13.764;2023-02-13T05:31:13;21.50;35.20
75738;DHT22;64356;45.638;13.764;2023-02-13T05:33:39;21.60;35.20
75738;DHT22;64356;45.638;13.764;2023-02-13T05:36:05;21.70;35.00
75738;DHT22;64356;45.638;13.764;2023-02-13T05:38:30;21.70;34.90
75738;DHT22;64356;45.638;13.764;2023-02-13T05:40:59;21.80;34.90
75738;DHT22;64356;45.638;13.764;2023-02-13T05:43:26;21.80;34.80
75738;DHT22;64356;45.638;13.764;2023-02-13T05:46:06;21.90;34.70
75738;DHT22;64356;45.638;13.764;2023-02-13T05:48:33;22.00;34.60
75738;DHT22;64356;45.638;13.764;2023-02-13T05:50:59;22.00;34.50
75738;DHT22;64356;45.638;13.764;2023-02-13T05:53:25;22.10;34.40
75738;DHT22;64356;45.638;13.764;2023-02-13T05:55:51;22.10;34.30
75738;DHT22;64356;45.638;13.764;2023-02-13T05:58:18;22.20;34.20
75738;DHT22;64356;45.638;13.764;2023-02-13T06:00:44;22.20;34.10
75738;DHT22;64356;45.638;13.764;2023-02-13T06:03:10;22.30;34.10
75738;DHT22;64356;45.638;13.764;2023-02-13T06:05:35;22.30;34.10
75738;DHT22;64356;45.638;13.764;2023-02-13T06:08:01;22.30;34.00
75738;DHT22;64356;45.638;13.764;2023-02-13T06:10:27;22.30;34.00
75738;DHT22;64356;45.638;13.764;2023-02-13T06:12:52;22.30;34.00
75738;DHT22;64356;45.638;13.764;2023-02-13T06:15:18;22.30;34.10
75738;DHT22;64356;45.638;13.764;2023-02-13T06:17:43;22.30;34.10
75738;DHT22;64356;45.638;13.764;2023-02-13T06:20:09;22.30;34.20
75738;DHT22;64356;45.638;13.764;2023-02-13T06:22:35;22.30;34.30
75738;DHT22;64356;45.638;13.764;2023-02-13T06:25:01;22.20;34.30
75738;DHT22;64356;45.638;13.764;2023-02-13T06:27:26;22.20;34.30
75738;DHT22;64356;45.638;13.764;2023-02-13T06:29:52;22.20;34.30
75738;DHT22;64356;45.638;13.764;2023-02-13T06:32:18;22.20;34.40
75738;DHT22;64356;45.638;13.764;2023-02-13T06:34:43;22.20;35.00
75738;DHT22;64356;45.638;13.764;2023-02-13T06:37:09;22.20;35.30
75738;DHT22;64356;45.638;13.764;2023-02-13T06:39:35;22.30;35.00
75738;DHT22;64356;45.638;13.764;2023-02-13T06:42:00;22.40;34.90
75738;DHT22;64356;45.638;13.764;2023-02-13T06:44:26;22.40;34.80
75738;DHT22;64356;45.638;13.764;2023-02-13T06:46:52;22.50;34.70
75738;DHT22;64356;45.638;13.764;2023-02-13T06:49:18;22.50;35.00
75738;DHT22;64356;45.638;13.764;2023-02-13T06:51:44;22.50;34.60
75738;DHT22;64356;45.638;13.764;2023-02-13T06:54:09;22.50;34.70
75738;DHT22;64356;45.638;13.764;2023-02-13T06:56:35;22.50;34.00
75738;DHT22;64356;45.638;13.764;2023-02-13T06:59:01;22.40;33.00
75738;DHT22;64356;45.638;13.764;2023-02-13T07:01:27;22.10;32.00
75738;DHT22;64356;45.638;13.764;2023-02-13T07:03:52;21.80;32.80
75738;DHT22;64356;45.638;13.764;2023-02-13T07:06:19;21.70;32.00
75738;DHT22;64356;45.638;13.764;2023-02-13T07:08:45;21.70;32.50
75738;DHT22;64356;45.638;13.764;2023-02-13T07:11:22;21.80;32.80
75738;DHT22;64356;45.638;13.764;2023-02-13T07:13:48;21.90;33.40
75738;DHT22;64356;45.638;13.764;2023-02-13T07:16:14;22.10;33.70
75738;DHT22;64356;45.638;13.764;2023-02-13T07:18:40;22.20;34.00
75738;DHT22;64356;45.638;13.764;2023-02-13T07:21:06;22.20;34.00
75738;DHT22;64356;45.638;13.764;2023-02-13T07:23:31;22.20;34.20
75738;DHT22;64356;45.638;13.764;2023-02-13T07:26:01;22.20;34.30
75738;DHT22;64356;45.638;13.764;2023-02-13T07:28:28;22.20;34.80
75738;DHT22;64356;45.638;13.764;2023-02-13T07:30:54;22.10;34.60
75738;DHT22;64356;45.638;13.764;2023-02-13T07:33:20;22.10;34.90
75738;DHT22;64356;45.638;13.764;2023-02-13T07:35:47;22.00;35.10
75738;DHT22;64356;45.638;13.764;2023-02-13T07:38:13;21.90;35.40
75738;DHT22;64356;45.638;13.764;2023-02-13T07:40:39;21.90;35.60
75738;DHT22;64356;45.638;13.764;2023-02-13T07:43:04;21.80;35.70
75738;DHT22;64356;45.638;13.764;2023-02-13T07:45:30;21.80;35.70
75738;DHT22;64356;45.638;13.764;2023-02-13T07:47:56;21.80;36.00
75738;DHT22;64356;45.638;13.764;2023-02-13T07:50:22;21.70;36.00
75738;DHT22;64356;45.638;13.764;2023-02-13T07:52:55;21.70;36.20
75738;DHT22;64356;45.638;13.764;2023-02-13T07:55:21;21.80;36.30
75738;DHT22;64356;45.638;13.764;2023-02-13T07:57:47;21.80;36.90
75738;DHT22;64356;45.638;13.764;2023-02-13T08:00:13;21.80;36.50
75738;DHT22;64356;45.638;13.764;2023-02-13T08:02:39;21.80;36.70
75738;DHT22;64356;45.638;13.764;2023-02-13T08:05:05;21.80;36.90
75738;DHT22;64356;45.638;13.764;2023-02-13T08:07:31;21.80;37.00
75738;DHT22;64356;45.638;13.764;2023-02-13T08:09:57;21.90;37.10
75738;DHT22;64356;45.638;13.764;2023-02-13T08:12:41;21.90;37.10
75738;DHT22;64356;45.638;13.764;2023-02-13T08:15:13;21.80;37.40
75738;DHT22;64356;45.638;13.764;2023-02-13T08:17:39;21.80;36.60
75738;DHT22;64356;45.638;13.764;2023-02-13T08:20:05;21.80;37.10
75738;DHT22;64356;45.638;13.764;2023-02-13T08:22:37;21.70;37.50
75738;DHT22;64356;45.638;13.764;2023-02-13T08:25:05;21.70;36.30
75738;DHT22;64356;45.638;13.764;2023-02-13T08:27:31;21.70;36.70
75738;DHT22;64356;45.638;13.764;2023-02-13T08:29:57;21.70;37.10
75738;DHT22;64356;45.638;13.764;2023-02-13T08:32:24;21.70;37.40
75738;DHT22;64356;45.638;13.764;2023-02-13T08:34:50;21.70;37.60
75738;DHT22;64356;45.638;13.764;2023-02-13T08:37:16;21.60;37.70
75738;DHT22;64356;45.638;13.764;2023-02-13T08:39:42;21.60;37.70
75738;DHT22;64356;45.638;13.764;2023-02-13T08:42:09;21.60;37.60
75738;DHT22;64356;45.638;13.764;2023-02-13T08:44:35;21.60;37.70
75738;DHT22;64356;45.638;13.764;2023-02-13T08:47:02;21.70;37.70
75738;DHT22;64356;45.638;13.764;2023-02-13T08:49:31;21.70;37.80
75738;DHT22;64356;45.638;13.764;2023-02-13T08:51:57;21.70;37.60
75738;DHT22;64356;45.638;13.764;2023-02-13T08:54:23;21.80;38.10
75738;DHT22;64356;45.638;13.764;2023-02-13T08:56:49;21.70;38.00
75738;DHT22;64356;45.638;13.764;2023-02-13T08:59:15;21.70;38.50
75738;DHT22;64356;45.638;13.764;2023-02-13T09:01:40;21.70;38.70
75738;DHT22;64356;45.638;13.764;2023-02-13T09:04:06;21.70;38.80
75738;DHT22;64356;45.638;13.764;2023-02-13T09:06:32;21.70;38.40
75738;DHT22;64356;45.638;13.764;2023-02-13T09:08:58;21.80;38.40
75738;DHT22;64356;45.638;13.764;2023-02-13T09:11:23;21.80;38.10
75738;DHT22;64356;45.638;13.764;2023-02-13T09:13:52;21.90;37.00
75738;DHT22;64356;45.638;13.764;2023-02-13T09:16:18;21.90;36.90
75738;DHT22;64356;45.638;13.764;2023-02-13T09:18:46;21.90;38.00
75738;DHT22;64356;45.638;13.764;2023-02-13T09:21:12;21.90;38.20
75738;DHT22;64356;45.638;13.764;2023-02-13T09:23:39;22.00;38.10
75738;DHT22;64356;45.638;13.764;2023-02-13T09:26:07;22.00;38.10
75738;DHT22;64356;45.638;13.764;2023-02-13T09:28:34;22.00;37.80
75738;DHT22;64356;45.638;13.764;2023-02-13T09:31:16;22.00;37.70
75738;DHT22;64356;45.638;13.764;2023-02-13T09:33:44;22.00;37.70
75738;DHT22;64356;45.638;13.764;2023-02-13T09:36:15;22.00;37.60
75738;DHT22;64356;45.638;13.764;2023-02-13T09:38:44;22.00;37.60
75738;DHT22;64356;45.638;13.764;2023-02-13T09:43:54;22.10;37.50
75738;DHT22;64356;45.638;13.764;2023-02-13T09:46:33;22.10;37.30
75738;DHT22;64356;45.638;13.764;2023-02-13T09:49:05;22.20;37.50
75738;DHT22;64356;45.638;13.764;2023-02-13T09:51:32;22.20;37.40
75738;DHT22;64356;45.638;13.764;2023-02-13T09:54:06;22.20;37.30
75738;DHT22;64356;45.638;13.764;2023-02-13T09:56:54;22.10;37.10
75738;DHT22;64356;45.638;13.764;2023-02-13T09:59:57;22.20;37.20
75738;DHT22;64356;45.638;13.764;2023-02-13T10:02:42;22.20;37.40
75738;DHT22;64356;45.638;13.764;2023-02-13T10:07:49;22.30;37.50
75738;DHT22;64356;45.638;13.764;2023-02-13T10:10:45;22.20;38.10
75738;DHT22;64356;45.638;13.764;2023-02-13T10:13:27;22.20;37.60
75738;DHT22;64356;45.638;13.764;2023-02-13T10:16:15;22.20;38.00
75738;DHT22;64356;45.638;13.764;2023-02-13T10:18:52;22.30;38.30
75738;DHT22;64356;45.638;13.764;2023-02-13T10:21:21;22.30;38.10
75738;DHT22;64356;45.638;13.764;2023-02-13T10:24:10;22.40;38.30
75738;DHT22;64356;45.638;13.764;2023-02-13T10:26:39;22.40;38.30
75738;DHT22;64356;45.638;13.764;2023-02-13T10:32:00;22.40;37.90
75738;DHT22;64356;45.638;13.764;2023-02-13T10:34:33;22.40;38.00
75738;DHT22;64356;45.638;13.764;2023-02-13T10:37:01;22.50;37.90
75738;DHT22;64356;45.638;13.764;2023-02-13T10:39:29;22.50;38.00
75738;DHT22;64356;45.638;13.764;2023-02-13T10:45:03;22.50;37.90
75738;DHT22;64356;45.638;13.764;2023-02-13T10:50:27;22.60;37.90
75738;DHT22;64356;45.638;13.764;2023-02-13T10:53:15;22.60;38.40
75738;DHT22;64356;45.638;13.764;2023-02-13T10:56:13;22.60;38.50
75738;DHT22;64356;45.638;13.764;2023-02-13T11:01:48;22.70;38.30
75738;DHT22;64356;45.638;13.764;2023-02-13T11:04:18;22.70;38.20
75738;DHT22;64356;45.638;13.764;2023-02-13T11:09:21;22.90;38.60
75738;DHT22;64356;45.638;13.764;2023-02-13T11:11:47;23.00;38.60
75738;DHT22;64356;45.638;13.764;2023-02-13T11:14:18;23.00;38.50
75738;DHT22;64356;45.638;13.764;2023-02-13T11:16:57;23.00;38.50
75738;DHT22;64356;45.638;13.764;2023-02-13T11:19:39;23.00;38.40
75738;DHT22;64356;45.638;13.764;2023-02-13T11:22:13;23.00;38.50
75738;DHT22;64356;45.638;13.764;2023-02-13T11:24:41;23.00;38.00
75738;DHT22;64356;45.638;13.764;2023-02-13T11:27:15;23.00;37.40
75738;DHT22;64356;45.638;13.764;2023-02-13T11:29:58;23.00;37.20
75738;DHT22;64356;45.638;13.764;2023-02-13T11:32:30;23.10;37.30
75738;DHT22;64356;45.638;13.764;2023-02-13T11:34:57;23.10;37.60
75738;DHT22;64356;45.638;13.764;2023-02-13T11:37:31;23.10;37.70
75738;DHT22;64356;45.638;13.764;2023-02-13T11:39:59;23.20;37.50
75738;DHT22;64356;45.638;13.764;2023-02-13T11:42:35;23.20;37.30
75738;DHT22;64356;45.638;13.764;2023-02-13T11:45:18;23.20;37.30
75738;DHT22;64356;45.638;13.764;2023-02-13T11:47:45;23.30;36.60
75738;DHT22;64356;45.638;13.764;2023-02-13T11:50:32;23.40;36.70
75738;DHT22;64356;45.638;13.764;2023-02-13T11:53:08;23.40;36.40
75738;DHT22;64356;45.638;13.764;2023-02-13T11:55:43;23.50;36.30
75738;DHT22;64356;45.638;13.764;2023-02-13T12:00:37;23.60;36.10
75738;DHT22;64356;45.638;13.764;2023-02-13T12:03:24;23.60;36.20
75738;DHT22;64356;45.638;13.764;2023-02-13T12:06:13;23.70;35.90
75738;DHT22;64356;45.638;13.764;2023-02-13T12:08:42;23.80;35.90
75738;DHT22;64356;45.638;13.764;2023-02-13T12:11:31;23.80;35.10
75738;DHT22;64356;45.638;13.764;2023-02-13T12:13:59;23.80;34.70
75738;DHT22;64356;45.638;13.764;2023-02-13T12:18:57;23.90;34.60
75738;DHT22;64356;45.638;13.764;2023-02-13T12:24:21;24.00;34.30
75738;DHT22;64356;45.638;13.764;2023-02-13T12:27:25;24.00;34.30
75738;DHT22;64356;45.638;13.764;2023-02-13T12:30:22;24.10;33.90
75738;DHT22;64356;45.638;13.764;2023-02-13T12:33:06;24.10;34.10
75738;DHT22;64356;45.638;13.764;2023-02-13T12:52:34;24.40;33.30
75738;DHT22;64356;45.638;13.764;2023-02-13T13:01:22;23.70;30.50
75738;DHT22;64356;45.638;13.764;2023-02-13T13:06:09;23.20;31.40
75738;DHT22;64356;45.638;13.764;2023-02-13T13:14:35;22.60;33.20
75738;DHT22;64356;45.638;13.764;2023-02-13T13:22:47;22.60;33.60
75738;DHT22;64356;45.638;13.764;2023-02-13T13:25:24;22.50;35.30
75738;DHT22;64356;45.638;13.764;2023-02-13T13:28:10;22.50;34.40
75738;DHT22;64356;45.638;13.764;2023-02-13T13:30:41;22.50;34.10
75738;DHT22;64356;45.638;13.764;2023-02-13T13:33:23;22.40;33.50
75738;DHT22;64356;45.638;13.764;2023-02-13T13:41:01;22.30;33.90
75738;DHT22;64356;45.638;13.764;2023-02-13T13:49:28;22.10;36.50
75738;DHT22;64356;45.638;13.764;2023-02-13T13:54:48;21.90;37.50
75738;DHT22;64356;45.638;13.764;2023-02-13T13:57:58;21.90;38.40
75738;DHT22;64356;45.638;13.764;2023-02-13T14:00:27;22.10;38.60
75738;DHT22;64356;45.638;13.764;2023-02-13T14:03:23;22.40;38.30
75738;DHT22;64356;45.638;13.764;2023-02-13T14:06:07;22.70;38.70
75738;DHT22;64356;45.638;13.764;2023-02-13T14:11:23;23.20;38.20
75738;DHT22;64356;45.638;13.764;2023-02-13T14:13:50;23.40;38.10
75738;DHT22;64356;45.638;13.764;2023-02-13T14:16:36;23.40;37.50
75738;DHT22;64356;45.638;13.764;2023-02-13T14:19:03;23.30;37.30
75738;DHT22;64356;45.638;13.764;2023-02-13T14:21:30;23.20;37.50
75738;DHT22;64356;45.638;13.764;2023-02-13T14:23:57;23.00;37.50
75738;DHT22;64356;45.638;13.764;2023-02-13T14:26:36;22.90;37.60
75738;DHT22;64356;45.638;13.764;2023-02-13T14:29:20;22.80;37.90
75738;DHT22;64356;45.638;13.764;2023-02-13T14:32:00;22.80;38.40
75738;DHT22;64356;45.638;13.764;2023-02-13T14:34:32;22.70;38.70
75738;DHT22;64356;45.638;13.764;2023-02-13T14:39:35;22.60;38.70
75738;DHT22;64356;45.638;13.764;2023-02-13T14:42:03;22.50;38.90
75738;DHT22;64356;45.638;13.764;2023-02-13T14:44:49;22.40;39.20
75738;DHT22;64356;45.638;13.764;2023-02-13T14:49:50;22.20;39.60
75738;DHT22;64356;45.638;13.764;2023-02-13T14:52:33;22.10;39.60
75738;DHT22;64356;45.638;13.764;2023-02-13T14:55:39;22.00;39.80
75738;DHT22;64356;45.638;13.764;2023-02-13T15:00:44;21.90;39.10
75738;DHT22;64356;45.638;13.764;2023-02-13T15:05:51;21.70;39.90
75738;DHT22;64356;45.638;13.764;2023-02-13T15:08:21;21.60;40.00
75738;DHT22;64356;45.638;13.764;2023-02-13T15:10:50;21.50;40.10
75738;DHT22;64356;45.638;13.764;2023-02-13T15:13:21;21.50;40.30
75738;DHT22;64356;45.638;13.764;2023-02-13T15:15:56;21.50;40.50
75738;DHT22;64356;45.638;13.764;2023-02-13T15:18:43;21.40;40.50
75738;DHT22;64356;45.638;13.764;2023-02-13T15:21:15;21.40;40.50
75738;DHT22;64356;45.638;13.764;2023-02-13T15:23:42;21.40;40.50
75738;DHT22;64356;45.638;13.764;2023-02-13T15:26:16;21.40;40.60
75738;DHT22;64356;45.638;13.764;2023-02-13T15:29:00;21.40;40.60
75738;DHT22;64356;45.638;13.764;2023-02-13T15:31:32;21.40;40.50
75738;DHT22;64356;45.638;13.764;2023-02-13T15:33:59;21.30;40.40
75738;DHT22;64356;45.638;13.764;2023-02-13T15:36:33;21.30;40.70
75738;DHT22;64356;45.638;13.764;2023-02-13T15:39:03;21.30;40.80
75738;DHT22;64356;45.638;13.764;2023-02-13T15:41:43;21.20;40.80
75738;DHT22;64356;45.638;13.764;2023-02-13T15:44:16;21.20;41.00
75738;DHT22;64356;45.638;13.764;2023-02-13T15:46:46;21.10;41.30
75738;DHT22;64356;45.638;13.764;2023-02-13T15:49:17;21.10;41.50
75738;DHT22;64356;45.638;13.764;2023-02-13T15:51:44;21.10;41.10
75738;DHT22;64356;45.638;13.764;2023-02-13T15:54:27;21.10;41.00
75738;DHT22;64356;45.638;13.764;2023-02-13T15:56:56;21.00;41.00
75738;DHT22;64356;45.638;13.764;2023-02-13T15:59:24;21.00;41.20
75738;DHT22;64356;45.638;13.764;2023-02-13T16:01:51;20.90;41.20
75738;DHT22;64356;45.638;13.764;2023-02-13T16:04:17;20.90;41.10
75738;DHT22;64356;45.638;13.764;2023-02-13T16:06:45;20.90;41.10
75738;DHT22;64356;45.638;13.764;2023-02-13T16:09:32;20.80;41.40
75738;DHT22;64356;45.638;13.764;2023-02-13T16:12:27;20.80;41.50
75738;DHT22;64356;45.638;13.764;2023-02-13T16:15:01;20.70;41.40
75738;DHT22;64356;45.638;13.764;2023-02-13T16:17:38;20.70;41.40
75738;DHT22;64356;45.638;13.764;2023-02-13T16:20:20;20.70;41.70
75738;DHT22;64356;45.638;13.764;2023-02-13T16:22:55;20.60;41.80
75738;DHT22;64356;45.638;13.764;2023-02-13T16:25:24;20.60;41.60
75738;DHT22;64356;45.638;13.764;2023-02-13T16:27:52;20.50;41.60
75738;DHT22;64356;45.638;13.764;2023-02-13T16:32:50;20.50;42.00
75738;DHT22;64356;45.638;13.764;2023-02-13T16:35:29;20.40;42.00
75738;DHT22;64356;45.638;13.764;2023-02-13T16:37:57;20.50;41.90
75738;DHT22;64356;45.638;13.764;2023-02-13T16:40:42;20.50;41.90
75738;DHT22;64356;45.638;13.764;2023-02-13T16:43:39;20.70;41.60
75738;DHT22;64356;45.638;13.764;2023-02-13T16:48:35;20.90;41.00
75738;DHT22;64356;45.638;13.764;2023-02-13T16:51:01;21.00;41.00
75738;DHT22;64356;45.638;13.764;2023-02-13T16:53:27;21.00;40.80
75738;DHT22;64356;45.638;13.764;2023-02-13T16:56:08;21.10;40.90
75738;DHT22;64356;45.638;13.764;2023-02-13T16:58:34;21.20;41.00
75738;DHT22;64356;45.638;13.764;2023-02-13T17:01:01;21.20;40.60
75738;DHT22;64356;45.638;13.764;2023-02-13T17:03:28;21.20;40.60
75738;DHT22;64356;45.638;13.764;2023-02-13T17:06:00;21.30;40.70
75738;DHT22;64356;45.638;13.764;2023-02-13T17:08:26;21.30;41.00
75738;DHT22;64356;45.638;13.764;2023-02-13T17:11:04;21.30;41.00
75738;DHT22;64356;45.638;13.764;2023-02-13T17:13:30;21.30;41.00
75738;DHT22;64356;45.638;13.764;2023-02-13T17:15:57;21.30;40.20
75738;DHT22;64356;45.638;13.764;2023-02-13T17:18:27;21.30;40.40
75738;DHT22;64356;45.638;13.764;2023-02-13T17:20:53;21.30;40.00
75738;DHT22;64356;45.638;13.764;2023-02-13T17:23:21;21.20;40.20
75738;DHT22;64356;45.638;13.764;2023-02-13T17:25:48;21.20;39.80
75738;DHT22;64356;45.638;13.764;2023-02-13T17:28:15;21.30;39.80
75738;DHT22;64356;45.638;13.764;2023-02-13T17:30:42;21.30;39.90
75738;DHT22;64356;45.638;13.764;2023-02-13T17:33:13;21.30;40.50
75738;DHT22;64356;45.638;13.764;2023-02-13T17:35:39;21.30;40.60
75738;DHT22;64356;45.638;13.764;2023-02-13T17:38:05;21.30;40.40
75738;DHT22;64356;45.638;13.764;2023-02-13T17:40:33;21.30;40.50
75738;DHT22;64356;45.638;13.764;2023-02-13T17:42:58;21.20;41.00
75738;DHT22;64356;45.638;13.764;2023-02-13T17:45:27;21.10;41.00
75738;DHT22;64356;45.638;13.764;2023-02-13T17:47:53;21.00;42.00
75738;DHT22;64356;45.638;13.764;2023-02-13T17:50:19;20.90;41.40
75738;DHT22;64356;45.638;13.764;2023-02-13T17:52:46;20.90;39.70
75738;DHT22;64356;45.638;13.764;2023-02-13T17:55:21;20.80;40.70
75738;DHT22;64356;45.638;13.764;2023-02-13T17:57:49;20.80;41.90
75738;DHT22;64356;45.638;13.764;2023-02-13T18:00:16;20.80;41.90